createdAt,value
2023-03-14T00:01:16.402Z,3.60
2023-03-14T00:03:47.839Z,3.50
2023-03-14T00:06:14.824Z,4.00
2023-03-14T00:08:42.334Z,4.20
2023-03-14T00:11:17.281Z,3.90
2023-03-14T00:13:45.173Z,3.70
2023-03-14T00:16:18.715Z,3.60
2023-03-14T00:18:45.862Z,3.30
2023-03-14T00:21:12.741Z,3.90
2023-03-14T00:23:46.420Z,4.30
2023-03-14T00:26:14.949Z,4.60
2023-03-14T00:28:42.316Z,4.30
2023-03-14T00:31:11.823Z,4.10
2023-03-14T00:33:40.444Z,4.20
2023-03-14T00:36:09.448Z,4.40
2023-03-14T00:38:38.984Z,4.70
2023-03-14T00:41:07.989Z,3.80
2023-03-14T00:43:35.118Z,4.10
2023-03-14T00:46:02.145Z,4.30
2023-03-14T00:48:29.808Z,4.90
2023-03-14T00:50:56.549Z,4.70
2023-03-14T00:53:29.954Z,4.20
2023-03-14T00:55:57.407Z,4.20
2023-03-14T00:58:24.227Z,4.20
2023-03-14T01:00:51.258Z,4.70
2023-03-14T01:03:18.513Z,4.20
2023-03-14T01:05:50.645Z,4.40
2023-03-14T01:08:17.534Z,4.50
2023-03-14T01:10:44.369Z,4.40
2023-03-14T01:13:11.920Z,4.80
2023-03-14T01:15:39.717Z,4.30
2023-03-14T01:18:06.469Z,4.40
2023-03-14T01:20:33.302Z,4.60
2023-03-14T01:23:00.037Z,4.20
2023-03-14T01:25:27.343Z,4.20
2023-03-14T01:27:55.266Z,4.60
2023-03-14T01:30:22.533Z,4.30
2023-03-14T01:32:49.465Z,4.20
2023-03-14T01:35:16.605Z,4.30
2023-03-14T01:37:43.551Z,3.60
2023-03-14T01:40:17.593Z,4.20
2023-03-14T01:42:46.577Z,3.60
2023-03-14T01:45:52.170Z,3.70
2023-03-14T01:48:19.225Z,4.10
2023-03-14T01:50:46.655Z,4.10
2023-03-14T01:53:15.427Z,4.20
2023-03-14T01:55:42.299Z,4.40
2023-03-14T01:58:09.097Z,4.00
2023-03-14T02:00:36.116Z,4.30
2023-03-14T02:03:07.270Z,3.90
2023-03-14T02:05:38.900Z,4.00
2023-03-14T02:08:11.876Z,4.30
2023-03-14T02:10:55.022Z,3.80
2023-03-14T02:13:37.218Z,3.90
2023-03-14T02:16:17.281Z,4.00
2023-03-14T02:18:44.078Z,4.30
2023-03-14T02:21:37.817Z,4.30
2023-03-14T02:24:04.966Z,3.60
2023-03-14T02:27:05.804Z,3.50
2023-03-14T02:29:37.741Z,4.50
2023-03-14T02:32:04.991Z,4.30
2023-03-14T02:34:32.051Z,3.60
2023-03-14T02:36:59.293Z,3.80
2023-03-14T02:39:34.105Z,4.00
2023-03-14T02:42:00.995Z,4.00
2023-03-14T02:44:29.862Z,3.80
2023-03-14T02:47:03.353Z,3.90
2023-03-14T02:49:31.659Z,3.80
2023-03-14T02:51:59.158Z,4.10
2023-03-14T02:54:26.911Z,4.00
2023-03-14T02:56:54.237Z,4.20
2023-03-14T02:59:21.266Z,3.80
2023-03-14T03:01:52.222Z,3.80
2023-03-14T03:04:18.974Z,3.90
2023-03-14T03:06:46.670Z,3.60
2023-03-14T03:11:05.864Z,3.40
2023-03-14T03:13:36.658Z,3.50
2023-03-14T03:16:06.129Z,3.40
2023-03-14T03:18:36.084Z,3.70
2023-03-14T03:21:04.730Z,3.70
2023-03-14T03:23:32.888Z,3.60
2023-03-14T03:26:01.065Z,3.70
2023-03-14T03:28:30.111Z,3.70
2023-03-14T03:30:59.764Z,3.80
2023-03-14T03:33:28.047Z,3.70
2023-03-14T03:35:56.207Z,4.00
2023-03-14T03:38:29.788Z,3.70
2023-03-14T03:41:08.570Z,3.50
2023-03-14T03:43:38.406Z,3.80
2023-03-14T03:46:07.778Z,3.80
2023-03-14T03:48:37.181Z,3.50
2023-03-14T03:51:06.914Z,4.00
2023-03-14T03:53:41.792Z,3.60
2023-03-14T03:56:13.044Z,3.80
2023-03-14T03:58:43.042Z,4.10
2023-03-14T04:01:14.578Z,3.90
2023-03-14T04:03:42.866Z,4.20
2023-03-14T04:06:13.136Z,4.00
2023-03-14T04:08:42.944Z,4.80
2023-03-14T04:11:17.224Z,4.20
2023-03-14T04:14:06.670Z,3.90
2023-03-14T04:16:35.785Z,3.90
2023-03-14T04:19:12.314Z,3.70
2023-03-14T04:21:45.824Z,4.40
2023-03-14T04:24:14.652Z,3.70
2023-03-14T04:26:45.332Z,3.80
2023-03-14T04:29:14.065Z,4.00
2023-03-14T04:31:44.311Z,4.40
2023-03-14T04:34:14.312Z,4.60
2023-03-14T04:36:51.067Z,3.70
2023-03-14T04:39:23.292Z,4.00
2023-03-14T04:42:01.632Z,3.60
2023-03-14T04:44:30.042Z,4.50
2023-03-14T04:46:58.889Z,4.20
2023-03-14T04:49:27.387Z,3.90
2023-03-14T04:51:56.313Z,4.20
2023-03-14T04:54:27.076Z,3.80
2023-03-14T04:57:03.410Z,4.10
2023-03-14T04:59:34.198Z,4.00
2023-03-14T05:02:15.784Z,3.80
2023-03-14T05:05:16.438Z,3.60
2023-03-14T05:08:05.067Z,3.90
2023-03-14T05:11:03.912Z,3.80
2023-03-14T05:13:51.319Z,3.90
2023-03-14T05:16:34.949Z,3.90
2023-03-14T05:19:16.051Z,3.90
2023-03-14T05:22:02.894Z,3.20
2023-03-14T05:25:04.563Z,3.50
2023-03-14T05:28:07.968Z,3.60
2023-03-14T05:30:56.114Z,3.50
2023-03-14T05:33:34.903Z,3.10
2023-03-14T05:36:29.384Z,3.50
2023-03-14T05:39:38.351Z,3.10
2023-03-14T05:42:27.102Z,3.10
2023-03-14T05:45:14.023Z,3.00
2023-03-14T05:48:02.599Z,3.10
2023-03-14T05:50:56.558Z,3.00
2023-03-14T05:53:38.972Z,3.30
2023-03-14T05:56:35.114Z,3.50
2023-03-14T05:59:25.983Z,3.10
2023-03-14T06:02:23.343Z,3.20
2023-03-14T06:05:09.603Z,3.60
2023-03-14T06:07:39.380Z,3.60
2023-03-14T06:10:08.419Z,2.90
2023-03-14T06:12:39.037Z,3.80
2023-03-14T06:15:08.290Z,2.80
2023-03-14T06:17:37.162Z,3.10
2023-03-14T06:20:11.923Z,3.00
2023-03-14T06:22:41.454Z,3.20
2023-03-14T06:25:20.192Z,3.10
2023-03-14T06:27:57.192Z,3.50
2023-03-14T06:30:25.546Z,2.80
2023-03-14T06:32:54.763Z,3.30
2023-03-14T06:35:25.198Z,3.00
2023-03-14T06:37:54.151Z,2.90
2023-03-14T06:40:22.312Z,3.10
2023-03-14T06:42:59.672Z,2.90
2023-03-14T06:45:29.619Z,3.10
2023-03-14T06:48:00.838Z,2.90
2023-03-14T06:50:39.386Z,3.30
2023-03-14T06:53:07.628Z,3.10
2023-03-14T06:55:37.671Z,3.10
2023-03-14T06:58:09.202Z,3.00
2023-03-14T07:00:42.687Z,3.80
2023-03-14T07:03:13.378Z,3.20
2023-03-14T07:05:46.883Z,2.90
2023-03-14T07:08:15.545Z,2.90
2023-03-14T07:10:43.690Z,3.00
2023-03-14T07:13:12.626Z,3.00
2023-03-14T07:15:50.394Z,2.90
2023-03-14T07:18:18.696Z,3.10
2023-03-14T07:20:53.830Z,3.20
2023-03-14T07:23:22.733Z,3.10
2023-03-14T07:25:54.823Z,2.90
2023-03-14T07:28:24.441Z,3.00
2023-03-14T07:30:57.973Z,3.20
2023-03-14T07:33:30.257Z,3.00
2023-03-14T07:35:59.072Z,3.00
2023-03-14T07:38:27.483Z,3.10
2023-03-14T07:41:25.268Z,3.70
2023-03-14T07:44:19.654Z,3.00
2023-03-14T07:46:48.775Z,3.10
2023-03-14T07:49:17.200Z,3.10
2023-03-14T07:51:49.581Z,3.50
2023-03-14T07:54:19.644Z,3.40
2023-03-14T07:56:48.318Z,3.10
2023-03-14T07:59:16.464Z,3.50
2023-03-14T08:01:44.856Z,3.90
2023-03-14T08:04:13.104Z,3.60
2023-03-14T08:06:41.319Z,3.40
2023-03-14T08:09:09.978Z,3.70
2023-03-14T08:11:41.734Z,3.50
2023-03-14T08:14:12.029Z,4.10
2023-03-14T08:16:41.612Z,3.40
2023-03-14T08:19:10.859Z,3.50
2023-03-14T08:21:39.260Z,3.10
2023-03-14T08:24:14.197Z,3.40
2023-03-14T08:26:42.775Z,3.30
2023-03-14T08:29:10.912Z,3.30
2023-03-14T08:31:39.586Z,3.10
2023-03-14T08:34:08.131Z,3.20
2023-03-14T08:36:36.310Z,3.30
2023-03-14T08:39:05.127Z,3.40
2023-03-14T08:41:33.328Z,2.90
2023-03-14T08:44:03.803Z,3.50
2023-03-14T08:46:33.240Z,3.30
2023-03-14T08:49:05.053Z,4.00
2023-03-14T08:51:33.405Z,3.70
2023-03-14T08:54:02.568Z,3.20
2023-03-14T08:56:30.693Z,3.30
2023-03-14T08:59:00.152Z,3.10
2023-03-14T09:01:31.262Z,3.40
2023-03-14T09:04:00.186Z,3.10
2023-03-14T09:06:32.008Z,3.30
2023-03-14T09:09:02.902Z,3.00
2023-03-14T09:11:31.570Z,3.10
2023-03-14T09:14:01.840Z,3.00
2023-03-14T09:16:31.120Z,2.90
2023-03-14T09:19:00.761Z,3.00
2023-03-14T09:21:36.646Z,3.10
2023-03-14T09:24:05.025Z,2.90
2023-03-14T09:26:33.152Z,2.80
2023-03-14T09:29:04.207Z,3.40
2023-03-14T09:31:32.386Z,2.60
2023-03-14T09:34:02.595Z,2.70
2023-03-14T09:36:31.296Z,2.70
2023-03-14T09:38:59.576Z,3.20
2023-03-14T09:41:30.886Z,2.70
2023-03-14T09:44:04.348Z,2.80
2023-03-14T09:46:32.739Z,2.70
2023-03-14T09:49:00.971Z,2.90
2023-03-14T09:51:29.421Z,2.60
2023-03-14T09:53:57.653Z,3.10
2023-03-14T09:56:30.809Z,2.60
2023-03-14T09:59:04.867Z,2.40
2023-03-14T10:01:34.823Z,3.00
2023-03-14T10:04:06.402Z,2.90
2023-03-14T10:06:35.867Z,2.80
2023-03-14T10:09:04.510Z,2.40
2023-03-14T10:11:33.769Z,2.40
2023-03-14T10:14:09.634Z,2.40
2023-03-14T10:16:42.469Z,2.60
2023-03-14T10:19:12.600Z,2.40
2023-03-14T10:21:42.692Z,2.50
2023-03-14T10:24:26.022Z,2.20
2023-03-14T10:27:05.417Z,2.10
2023-03-14T10:29:35.240Z,2.60
2023-03-14T10:32:06.020Z,2.30
2023-03-14T10:34:36.068Z,2.10
2023-03-14T10:37:26.683Z,2.30
2023-03-14T10:39:56.577Z,2.00
2023-03-14T10:42:35.809Z,2.60
2023-03-14T10:45:16.656Z,2.50
2023-03-14T10:47:51.120Z,2.60
2023-03-14T10:50:30.043Z,2.70
2023-03-14T10:53:03.351Z,2.20
2023-03-14T10:55:42.130Z,2.40
2023-03-14T10:58:31.722Z,2.40
2023-03-14T11:01:35.261Z,2.30
2023-03-14T11:04:33.268Z,5.10
2023-03-14T11:07:23.851Z,2.60
2023-03-14T11:10:44.850Z,2.60
2023-03-14T11:13:29.911Z,2.00
2023-03-14T11:16:18.484Z,2.30
2023-03-14T11:19:18.582Z,2.20
2023-03-14T11:22:26.553Z,2.30
2023-03-14T11:25:02.580Z,2.30
2023-03-14T11:27:46.718Z,2.50
2023-03-14T11:30:21.088Z,2.10
2023-03-14T11:32:52.379Z,2.20
2023-03-14T11:35:23.588Z,2.10
2023-03-14T11:38:21.099Z,2.00
2023-03-14T11:40:50.217Z,1.90
2023-03-14T11:43:22.377Z,1.70
2023-03-14T11:45:51.035Z,2.20
2023-03-14T11:48:37.497Z,2.00
2023-03-14T11:51:10.351Z,2.00
2023-03-14T11:54:01.928Z,2.40
2023-03-14T11:56:46.781Z,2.20
2023-03-14T11:59:24.750Z,3.10
2023-03-14T12:01:55.638Z,2.90
2023-03-14T12:04:55.336Z,2.40
2023-03-14T12:07:41.044Z,2.20
2023-03-14T12:10:10.861Z,1.70
2023-03-14T12:12:39.300Z,2.00
2023-03-14T12:15:21.879Z,1.80
2023-03-14T12:17:57.628Z,2.00
2023-03-14T12:20:26.238Z,2.00
2023-03-14T12:22:54.616Z,1.80
2023-03-14T12:25:24.618Z,1.40
2023-03-14T12:27:56.736Z,1.80
2023-03-14T12:30:31.302Z,1.50
2023-03-14T12:33:18.279Z,1.80
2023-03-14T12:35:53.996Z,1.80
2023-03-14T12:38:58.052Z,1.90
2023-03-14T12:41:28.464Z,1.90
2023-03-14T12:43:56.578Z,1.50
2023-03-14T12:46:27.132Z,2.40
2023-03-14T12:49:05.968Z,2.00
2023-03-14T12:51:38.036Z,1.70
2023-03-14T12:54:43.927Z,1.70
2023-03-14T12:57:34.758Z,1.70
2023-03-14T13:00:23.851Z,1.70
2023-03-14T13:02:53.382Z,1.70
2023-03-14T13:05:24.920Z,1.50
2023-03-14T13:08:00.762Z,1.60
2023-03-14T13:10:37.213Z,1.90
2023-03-14T13:13:26.740Z,1.40
2023-03-14T13:16:01.400Z,1.50
2023-03-14T13:18:42.122Z,1.50
2023-03-14T13:21:23.965Z,1.50
2023-03-14T13:24:25.137Z,1.10
2023-03-14T13:26:54.675Z,1.30
2023-03-14T13:29:23.342Z,1.90
2023-03-14T13:31:55.391Z,1.30
2023-03-14T13:34:26.142Z,1.50
2023-03-14T13:36:59.703Z,1.30
2023-03-14T13:39:30.132Z,1.00
2023-03-14T13:42:01.411Z,1.00
2023-03-14T13:44:40.278Z,1.20
2023-03-14T13:47:15.447Z,1.20
2023-03-14T13:49:43.658Z,1.00
2023-03-14T13:52:25.931Z,0.90
2023-03-14T13:54:57.263Z,1.10
2023-03-14T13:57:25.460Z,0.80
2023-03-14T14:00:01.921Z,0.80
2023-03-14T14:02:34.792Z,0.80
2023-03-14T14:05:03.043Z,0.80
2023-03-14T14:07:34.030Z,0.80
2023-03-14T14:10:02.712Z,0.90
2023-03-14T14:12:34.963Z,1.00
2023-03-14T14:15:10.678Z,1.10
2023-03-14T14:20:23.049Z,1.10
2023-03-14T14:22:52.502Z,1.10
2023-03-14T14:25:20.871Z,1.00
2023-03-14T14:27:50.304Z,1.20
2023-03-14T14:30:18.565Z,0.90
2023-03-14T14:32:48.454Z,1.20
2023-03-14T14:35:43.328Z,1.10
2023-03-14T14:38:14.105Z,0.90
2023-03-14T14:40:48.965Z,1.10
2023-03-14T14:43:28.640Z,1.20
2023-03-14T14:45:59.236Z,1.00
2023-03-14T14:48:28.265Z,1.20
2023-03-14T14:51:02.443Z,0.90
2023-03-14T14:53:32.651Z,1.10
2023-03-14T14:56:05.606Z,1.30
2023-03-14T14:58:39.265Z,1.10
2023-03-14T15:01:40.519Z,1.10
2023-03-14T15:04:15.935Z,1.10
2023-03-14T15:06:45.226Z,1.10
2023-03-14T15:09:13.730Z,1.20
2023-03-14T15:11:44.620Z,1.30
2023-03-14T15:14:12.869Z,1.20
2023-03-14T15:16:50.178Z,1.50
2023-03-14T15:19:25.600Z,1.60
2023-03-14T15:21:54.550Z,1.40
2023-03-14T15:24:23.065Z,1.40
2023-03-14T15:27:52.268Z,1.70
2023-03-14T15:30:21.558Z,1.00
2023-03-14T15:32:51.658Z,1.20
2023-03-14T15:35:19.813Z,1.10
2023-03-14T15:37:49.942Z,1.30
2023-03-14T15:40:18.139Z,1.00
2023-03-14T15:43:06.382Z,1.00
2023-03-14T15:45:35.013Z,2.00
2023-03-14T15:48:04.025Z,0.90
2023-03-14T15:50:32.359Z,1.30
2023-03-14T15:53:01.194Z,1.10
2023-03-14T15:55:29.981Z,1.20
2023-03-14T15:58:02.271Z,1.50
2023-03-14T16:00:31.718Z,1.80
2023-03-14T16:03:00.177Z,2.30
2023-03-14T16:05:28.582Z,3.00
2023-03-14T16:07:58.215Z,2.40
2023-03-14T16:10:30.383Z,1.80
2023-03-14T16:12:59.302Z,1.40
2023-03-14T16:15:27.791Z,1.90
2023-03-14T16:17:59.691Z,1.40
2023-03-14T16:20:38.602Z,1.20
2023-03-14T16:23:15.428Z,1.30
2023-03-14T16:25:47.537Z,1.30
2023-03-14T16:28:15.850Z,1.50
2023-03-14T16:30:44.061Z,1.50
2023-03-14T16:33:13.743Z,1.40
2023-03-14T16:35:42.684Z,1.50
2023-03-14T16:38:11.621Z,1.80
2023-03-14T16:40:40.116Z,1.90
2023-03-14T16:45:59.685Z,2.10
2023-03-14T16:48:38.787Z,2.30
2023-03-14T16:51:07.384Z,2.00
2023-03-14T16:53:36.376Z,1.80
2023-03-14T16:56:04.996Z,2.30
2023-03-14T16:58:34.849Z,2.30
2023-03-14T17:01:10.676Z,2.00
2023-03-14T17:03:44.291Z,1.90
2023-03-14T17:06:13.963Z,1.60
2023-03-14T17:08:44.378Z,2.30
2023-03-14T17:11:12.903Z,2.00
2023-03-14T17:13:41.421Z,3.10
2023-03-14T17:16:12.750Z,1.60
2023-03-14T17:18:41.330Z,2.00
2023-03-14T17:21:11.025Z,1.30
2023-03-14T17:23:42.206Z,1.40
2023-03-14T17:26:13.053Z,1.70
2023-03-14T17:28:41.924Z,1.30
2023-03-14T17:31:18.415Z,1.50
2023-03-14T17:33:52.471Z,1.70
2023-03-14T17:36:25.264Z,1.70
2023-03-14T17:38:55.983Z,1.70
2023-03-14T17:41:25.903Z,1.60
2023-03-14T17:43:54.885Z,1.40
2023-03-14T17:46:24.535Z,2.20
2023-03-14T17:48:53.040Z,1.80
2023-03-14T17:51:27.701Z,1.80
2023-03-14T17:53:56.519Z,1.70
2023-03-14T17:56:25.324Z,1.30
2023-03-14T17:58:59.200Z,1.10
2023-03-14T18:01:27.924Z,1.60
2023-03-14T18:03:59.073Z,2.10
2023-03-14T18:06:30.227Z,1.40
2023-03-14T18:08:59.127Z,1.50
2023-03-14T18:11:28.126Z,1.30
2023-03-14T18:13:57.335Z,1.40
2023-03-14T18:16:25.803Z,1.80
2023-03-14T18:19:00.370Z,1.30
2023-03-14T18:21:31.899Z,1.40
2023-03-14T18:24:04.985Z,1.30
2023-03-14T18:26:35.821Z,1.10
2023-03-14T18:29:04.126Z,1.90
2023-03-14T18:31:35.182Z,1.70
2023-03-14T18:34:03.594Z,1.50
2023-03-14T18:36:37.089Z,2.00
2023-03-14T18:39:07.521Z,1.20
2023-03-14T18:41:36.200Z,1.50
2023-03-14T18:44:06.324Z,1.80
2023-03-14T18:46:34.969Z,1.30
2023-03-14T18:49:04.230Z,1.30
2023-03-14T18:51:35.667Z,1.10
2023-03-14T18:54:10.027Z,1.60
2023-03-14T18:56:43.028Z,1.20
2023-03-14T18:59:11.469Z,1.30
2023-03-14T19:01:39.974Z,1.40
2023-03-14T19:04:10.953Z,1.60
2023-03-14T19:06:43.344Z,4.40
2023-03-14T19:09:14.167Z,8.40
2023-03-14T19:11:43.709Z,1.60
2023-03-14T19:14:16.176Z,1.60
2023-03-14T19:16:48.042Z,1.30
2023-03-14T19:19:16.658Z,1.80
2023-03-14T19:21:47.128Z,1.60
2023-03-14T19:24:18.808Z,1.80
2023-03-14T19:26:47.546Z,1.50
2023-03-14T19:29:16.516Z,1.80
2023-03-14T19:31:45.005Z,1.50
2023-03-14T19:34:13.654Z,1.80
2023-03-14T19:36:43.426Z,1.40
2023-03-14T19:39:12.877Z,1.50
2023-03-14T19:41:41.604Z,1.60
2023-03-14T19:44:10.166Z,1.40
2023-03-14T19:46:38.911Z,1.40
2023-03-14T19:49:07.552Z,1.50
2023-03-14T19:51:42.225Z,1.30
2023-03-14T19:54:10.833Z,1.40
2023-03-14T19:56:39.191Z,1.40
2023-03-14T19:59:08.467Z,1.30
2023-03-14T20:01:38.866Z,1.30
2023-03-14T20:04:07.399Z,1.30
2023-03-14T20:06:36.257Z,1.40
2023-03-14T20:09:06.002Z,1.00
2023-03-14T20:11:41.138Z,1.30
2023-03-14T20:14:10.414Z,1.40
2023-03-14T20:16:38.638Z,1.20
2023-03-14T20:19:08.187Z,1.50
2023-03-14T20:21:36.806Z,1.90
2023-03-14T20:24:07.236Z,1.70
2023-03-14T20:26:37.365Z,1.70
2023-03-14T20:29:05.648Z,1.30
2023-03-14T20:31:38.157Z,1.80
2023-03-14T20:34:06.580Z,1.60
2023-03-14T20:36:36.191Z,2.10
2023-03-14T20:39:04.679Z,2.20
2023-03-14T20:41:32.885Z,2.60
2023-03-14T20:44:05.295Z,2.40
2023-03-14T20:46:33.506Z,2.10
2023-03-14T20:49:04.304Z,2.40
2023-03-14T20:51:33.087Z,2.30
2023-03-14T20:54:01.297Z,2.70
2023-03-14T20:56:29.797Z,2.30
2023-03-14T20:58:59.085Z,3.00
2023-03-14T21:01:27.571Z,2.80
2023-03-14T21:03:55.917Z,2.60
2023-03-14T21:06:24.452Z,2.60
2023-03-14T21:08:52.749Z,2.80
2023-03-14T21:11:20.939Z,2.60
2023-03-14T21:13:49.237Z,2.60
2023-03-14T21:16:17.611Z,2.80
2023-03-14T21:18:45.869Z,3.30
2023-03-14T21:21:14.672Z,2.90
2023-03-14T21:23:44.415Z,2.80
2023-03-14T21:26:12.478Z,3.00
2023-03-14T21:28:46.449Z,3.10
2023-03-14T21:31:15.270Z,2.90
2023-03-14T21:33:43.408Z,3.30
2023-03-14T21:36:12.099Z,2.90
2023-03-14T21:38:40.349Z,3.60
2023-03-14T21:41:10.225Z,3.50
2023-03-14T21:43:38.756Z,3.80
2023-03-14T21:46:07.009Z,3.80
2023-03-14T21:48:35.126Z,3.70
2023-03-14T21:51:05.611Z,4.00
2023-03-14T21:53:34.871Z,4.20
2023-03-14T21:56:03.038Z,4.20
2023-03-14T21:58:35.867Z,3.80
2023-03-14T22:01:06.680Z,4.10
2023-03-14T22:03:34.955Z,3.80
2023-03-14T22:06:03.725Z,3.90
2023-03-14T22:08:32.988Z,3.60
2023-03-14T22:11:01.189Z,3.80
2023-03-14T22:13:29.665Z,4.10
2023-03-14T22:15:57.944Z,3.40
2023-03-14T22:18:26.017Z,4.30
2023-03-14T22:20:54.282Z,4.00
2023-03-14T22:23:22.733Z,3.60
2023-03-14T22:25:51.297Z,3.20
2023-03-14T22:28:19.966Z,4.10
2023-03-14T22:30:48.974Z,4.10
2023-03-14T22:33:18.528Z,3.50
2023-03-14T22:35:50.789Z,3.70
2023-03-14T22:38:19.224Z,4.10
2023-03-14T22:40:48.069Z,4.10
2023-03-14T22:43:16.347Z,3.60
2023-03-14T22:45:44.969Z,4.00
2023-03-14T22:48:13.222Z,4.10
2023-03-14T22:50:41.847Z,4.50
2023-03-14T22:53:10.258Z,4.00
2023-03-14T22:55:38.330Z,4.60
2023-03-14T22:58:06.880Z,5.00
2023-03-14T23:00:35.460Z,3.80
2023-03-14T23:03:04.015Z,4.30
2023-03-14T23:05:34.084Z,4.60
2023-03-14T23:08:02.327Z,4.40
2023-03-14T23:10:33.004Z,4.30
2023-03-14T23:13:01.437Z,5.10
2023-03-14T23:15:29.963Z,4.70
2023-03-14T23:18:00.813Z,4.20
2023-03-14T23:20:29.395Z,4.60
2023-03-14T23:22:57.558Z,5.00
2023-03-14T23:25:26.332Z,4.60
2023-03-14T23:27:55.076Z,4.50
2023-03-14T23:30:23.324Z,4.80
2023-03-14T23:32:51.789Z,4.90
2023-03-14T23:35:20.412Z,5.30
2023-03-14T23:37:50.032Z,5.20
2023-03-14T23:40:18.437Z,5.10
2023-03-14T23:42:48.311Z,4.90
2023-03-14T23:45:20.905Z,4.90
2023-03-14T23:47:49.733Z,5.00
2023-03-14T23:50:18.169Z,4.70
2023-03-14T23:52:52.853Z,5.20
2023-03-14T23:55:21.353Z,5.00
2023-03-14T23:57:49.401Z,4.60
